createdAt,value
2022-11-07T00:00:56.111Z,4.62
2022-11-07T00:01:57.088Z,4.65
2022-11-07T00:02:58.011Z,4.65
2022-11-07T00:03:58.839Z,4.69
2022-11-07T00:04:59.722Z,4.69
2022-11-07T00:06:00.613Z,4.73
2022-11-07T00:07:01.491Z,4.75
2022-11-07T00:08:02.363Z,4.78
2022-11-07T00:09:03.244Z,4.80
2022-11-07T00:10:04.142Z,4.84
2022-11-07T00:11:05.033Z,4.85
2022-11-07T00:12:05.907Z,4.85
2022-11-07T00:13:06.797Z,4.85
2022-11-07T00:14:07.693Z,4.86
2022-11-07T00:15:08.576Z,4.86
2022-11-07T00:16:09.462Z,4.85
2022-11-07T00:17:10.333Z,4.84
2022-11-07T00:18:11.221Z,4.84
2022-11-07T00:19:12.097Z,4.82
2022-11-07T00:20:12.989Z,4.82
2022-11-07T00:21:13.868Z,4.78
2022-11-07T00:22:14.753Z,4.80
2022-11-07T00:23:16.076Z,4.78
2022-11-07T00:24:16.171Z,4.73
2022-11-07T00:25:17.057Z,4.72
2022-11-07T00:26:17.945Z,4.72
2022-11-07T00:27:18.876Z,4.70
2022-11-07T00:28:19.717Z,4.69
2022-11-07T00:29:20.723Z,4.67
2022-11-07T00:30:21.540Z,4.67
2022-11-07T00:31:22.423Z,4.67
2022-11-07T00:32:23.311Z,4.66
2022-11-07T00:33:24.191Z,4.65
2022-11-07T00:34:25.071Z,4.65
2022-11-07T00:35:26.003Z,4.63
2022-11-07T00:36:26.882Z,4.62
2022-11-07T00:37:27.764Z,4.60
2022-11-07T00:38:28.647Z,4.59
2022-11-07T00:39:29.533Z,4.58
2022-11-07T00:40:30.427Z,4.55
2022-11-07T00:41:31.304Z,4.52
2022-11-07T00:42:32.191Z,4.51
2022-11-07T00:43:33.061Z,4.51
2022-11-07T00:44:33.968Z,4.48
2022-11-07T00:45:34.867Z,4.48
2022-11-07T00:46:35.748Z,4.47
2022-11-07T00:47:36.626Z,4.45
2022-11-07T00:48:37.505Z,4.45
2022-11-07T00:49:38.392Z,4.45
2022-11-07T00:50:39.281Z,4.47
2022-11-07T00:51:40.173Z,4.45
2022-11-07T00:52:41.051Z,4.47
2022-11-07T00:53:41.933Z,4.47
2022-11-07T00:54:42.813Z,4.48
2022-11-07T00:55:43.701Z,4.48
2022-11-07T00:56:44.580Z,4.52
2022-11-07T00:57:45.462Z,4.51
2022-11-07T00:58:46.347Z,4.52
2022-11-07T00:59:47.245Z,4.55
2022-11-07T01:00:48.122Z,4.55
2022-11-07T01:01:49.210Z,4.60
2022-11-07T01:02:49.743Z,4.62
2022-11-07T01:03:50.119Z,4.60
2022-11-07T01:04:51.004Z,4.59
2022-11-07T01:05:51.919Z,4.58
2022-11-07T01:06:52.801Z,4.55
2022-11-07T01:07:53.683Z,4.55
2022-11-07T01:08:54.566Z,4.54
2022-11-07T01:09:55.448Z,4.52
2022-11-07T01:10:56.344Z,4.51
2022-11-07T01:11:57.228Z,4.47
2022-11-07T01:12:58.108Z,4.42
2022-11-07T01:13:58.983Z,4.41
2022-11-07T01:14:59.893Z,4.36
2022-11-07T01:16:00.757Z,4.37
2022-11-07T01:17:01.631Z,4.36
2022-11-07T01:18:02.517Z,4.36
2022-11-07T01:19:03.402Z,4.40
2022-11-07T01:20:04.277Z,4.41
2022-11-07T01:21:05.170Z,4.42
2022-11-07T01:22:06.054Z,4.45
2022-11-07T01:23:06.957Z,4.48
2022-11-07T01:24:07.845Z,4.48
2022-11-07T01:25:08.723Z,4.51
2022-11-07T01:26:09.617Z,4.55
2022-11-07T01:27:10.500Z,4.54
2022-11-07T01:28:11.378Z,4.54
2022-11-07T01:29:12.255Z,4.52
2022-11-07T01:30:13.148Z,4.51
2022-11-07T01:31:14.028Z,4.51
2022-11-07T01:32:14.904Z,4.51
2022-11-07T01:33:16.310Z,4.47
2022-11-07T01:34:16.471Z,4.44
2022-11-07T01:35:17.358Z,4.40
2022-11-07T01:36:18.251Z,4.36
2022-11-07T01:37:19.132Z,4.32
2022-11-07T01:38:20.029Z,4.26
2022-11-07T01:39:20.900Z,4.22
2022-11-07T01:40:21.785Z,4.16
2022-11-07T01:41:22.679Z,4.15
2022-11-07T01:42:23.565Z,4.12
2022-11-07T01:43:24.442Z,4.12
2022-11-07T01:44:25.327Z,4.12
2022-11-07T01:45:26.328Z,4.11
2022-11-07T01:46:27.149Z,4.11
2022-11-07T01:47:28.036Z,4.15
2022-11-07T01:48:28.923Z,4.15
2022-11-07T01:49:29.812Z,4.18
2022-11-07T01:50:30.692Z,4.23
2022-11-07T01:51:31.585Z,4.26
2022-11-07T01:52:32.470Z,4.27
2022-11-07T01:53:33.353Z,4.29
2022-11-07T01:54:34.239Z,4.30
2022-11-07T01:55:35.120Z,4.33
2022-11-07T01:56:36.003Z,4.32
2022-11-07T01:57:36.884Z,4.33
2022-11-07T01:58:37.766Z,4.30
2022-11-07T01:59:38.649Z,4.29
2022-11-07T02:00:39.548Z,4.27
2022-11-07T02:01:40.543Z,4.24
2022-11-07T02:02:41.088Z,4.18
2022-11-07T02:03:41.489Z,4.14
2022-11-07T02:04:42.381Z,4.09
2022-11-07T02:05:43.268Z,4.05
2022-11-07T02:06:44.154Z,4.00
2022-11-07T02:07:45.045Z,3.97
2022-11-07T02:08:45.919Z,3.96
2022-11-07T02:09:46.802Z,3.97
2022-11-07T02:10:47.690Z,3.93
2022-11-07T02:11:48.576Z,3.88
2022-11-07T02:12:49.467Z,3.86
2022-11-07T02:13:50.358Z,3.79
2022-11-07T02:14:51.230Z,3.76
2022-11-07T02:15:52.140Z,3.70
2022-11-07T02:16:53.013Z,3.73
2022-11-07T02:17:53.888Z,3.69
2022-11-07T02:18:54.766Z,3.68
2022-11-07T02:19:55.644Z,3.68
2022-11-07T02:20:56.518Z,3.68
2022-11-07T02:21:57.411Z,3.65
2022-11-07T02:22:58.293Z,3.66
2022-11-07T02:23:59.191Z,3.69
2022-11-07T02:25:00.049Z,3.69
2022-11-07T02:26:00.931Z,3.69
2022-11-07T02:27:01.826Z,3.66
2022-11-07T02:28:02.710Z,3.68
2022-11-07T02:29:03.596Z,3.66
2022-11-07T02:30:04.476Z,3.65
2022-11-07T02:31:05.377Z,3.65
2022-11-07T02:32:06.254Z,3.62
2022-11-07T02:33:07.138Z,3.62
2022-11-07T02:34:08.018Z,3.60
2022-11-07T02:35:08.899Z,3.60
2022-11-07T02:36:09.785Z,3.60
2022-11-07T02:37:10.678Z,3.61
2022-11-07T02:38:11.559Z,3.62
2022-11-07T02:39:12.452Z,3.65
2022-11-07T02:40:13.325Z,3.68
2022-11-07T02:41:14.208Z,3.68
2022-11-07T02:42:15.109Z,3.72
2022-11-07T02:43:16.348Z,3.73
2022-11-07T02:44:16.787Z,3.73
2022-11-07T02:45:17.662Z,3.73
2022-11-07T02:46:18.565Z,3.72
2022-11-07T02:47:19.436Z,3.72
2022-11-07T02:48:20.321Z,3.72
2022-11-07T02:49:21.202Z,3.69
2022-11-07T02:50:22.076Z,3.66
2022-11-07T02:51:22.967Z,3.65
2022-11-07T02:52:23.854Z,3.65
2022-11-07T02:53:24.742Z,3.65
2022-11-07T02:54:25.620Z,3.62
2022-11-07T02:55:26.501Z,3.61
2022-11-07T02:56:27.387Z,3.58
2022-11-07T02:57:28.282Z,3.58
2022-11-07T02:58:29.156Z,3.54
2022-11-07T02:59:30.041Z,3.54
2022-11-07T03:00:30.919Z,3.55
2022-11-07T03:01:32.173Z,3.54
2022-11-07T03:02:32.715Z,3.52
2022-11-07T03:03:33.104Z,3.47
2022-11-07T03:04:33.996Z,3.45
2022-11-07T03:05:34.874Z,3.42
2022-11-07T03:06:35.779Z,3.42
2022-11-07T03:07:36.665Z,3.40
2022-11-07T03:08:37.548Z,3.42
2022-11-07T03:09:38.427Z,3.40
2022-11-07T03:10:39.293Z,3.40
2022-11-07T03:11:40.199Z,3.40
2022-11-07T03:12:41.061Z,3.42
2022-11-07T03:13:41.945Z,3.42
2022-11-07T03:14:42.880Z,3.43
2022-11-07T03:15:43.710Z,3.45
2022-11-07T03:16:44.625Z,3.45
2022-11-07T03:17:45.491Z,3.50
2022-11-07T03:18:46.369Z,3.48
2022-11-07T03:19:47.252Z,3.51
2022-11-07T03:20:48.137Z,3.52
2022-11-07T03:21:49.032Z,3.54
2022-11-07T03:22:49.913Z,3.54
2022-11-07T03:23:50.795Z,3.57
2022-11-07T03:24:51.680Z,3.55
2022-11-07T03:25:52.572Z,3.60
2022-11-07T03:26:53.447Z,3.61
2022-11-07T03:27:54.330Z,3.61
2022-11-07T03:28:55.203Z,3.62
2022-11-07T03:29:56.089Z,3.65
2022-11-07T03:30:56.960Z,3.61
2022-11-07T03:31:57.872Z,3.60
2022-11-07T03:32:58.735Z,3.58
2022-11-07T03:33:59.623Z,3.55
2022-11-07T03:35:00.505Z,3.52
2022-11-07T03:36:01.387Z,3.50
2022-11-07T03:37:02.277Z,3.45
2022-11-07T03:38:03.164Z,3.42
2022-11-07T03:39:04.077Z,3.39
2022-11-07T03:40:04.929Z,3.36
2022-11-07T03:41:05.815Z,3.33
2022-11-07T03:42:06.723Z,3.28
2022-11-07T03:43:07.597Z,3.23
2022-11-07T03:44:08.485Z,3.20
2022-11-07T03:45:09.359Z,3.18
2022-11-07T03:46:10.262Z,3.15
2022-11-07T03:47:11.152Z,3.15
2022-11-07T03:48:12.016Z,3.17
2022-11-07T03:49:12.892Z,3.13
2022-11-07T03:50:13.799Z,3.11
2022-11-07T03:51:14.655Z,3.10
2022-11-07T03:52:15.544Z,3.10
2022-11-07T03:53:22.284Z,3.10
2022-11-07T03:54:18.197Z,3.10
2022-11-07T03:55:18.143Z,3.08
2022-11-07T03:56:19.070Z,3.08
2022-11-07T03:57:19.943Z,3.06
2022-11-07T03:58:20.850Z,3.05
2022-11-07T03:59:21.710Z,3.02
2022-11-07T04:00:22.594Z,3.02
2022-11-07T04:01:23.563Z,2.99
2022-11-07T04:02:24.621Z,2.99
2022-11-07T04:03:24.971Z,3.00
2022-11-07T04:04:25.870Z,2.99
2022-11-07T04:05:26.728Z,2.97
2022-11-07T04:06:27.616Z,2.93
2022-11-07T04:07:28.504Z,2.92
2022-11-07T04:08:29.384Z,2.85
2022-11-07T04:09:30.260Z,2.82
2022-11-07T04:10:31.160Z,2.81
2022-11-07T04:11:32.035Z,2.78
2022-11-07T04:12:32.918Z,2.74
2022-11-07T04:13:33.801Z,2.72
2022-11-07T04:14:34.684Z,2.67
2022-11-07T04:15:35.569Z,2.64
2022-11-07T04:16:36.457Z,2.66
2022-11-07T04:17:37.481Z,2.63
2022-11-07T04:18:38.288Z,2.60
2022-11-07T04:19:39.171Z,2.61
2022-11-07T04:20:40.053Z,2.60
2022-11-07T04:21:40.937Z,2.57
2022-11-07T04:22:41.825Z,2.57
2022-11-07T04:23:42.706Z,2.54
2022-11-07T04:24:45.986Z,2.56
2022-11-07T04:25:44.127Z,2.54
2022-11-07T04:26:45.014Z,2.54
2022-11-07T04:27:45.901Z,2.54
2022-11-07T04:28:46.780Z,2.54
2022-11-07T04:29:47.663Z,2.54
2022-11-07T04:30:48.565Z,2.53
2022-11-07T04:31:49.446Z,2.49
2022-11-07T04:32:50.347Z,2.52
2022-11-07T04:33:51.199Z,2.48
2022-11-07T04:34:52.085Z,2.46
2022-11-07T04:35:52.969Z,2.46
2022-11-07T04:36:53.881Z,2.45
2022-11-07T04:37:54.752Z,2.43
2022-11-07T04:38:55.632Z,2.41
2022-11-07T04:39:56.509Z,2.38
2022-11-07T04:40:57.434Z,2.35
2022-11-07T04:41:58.278Z,2.34
2022-11-07T04:42:59.196Z,2.31
2022-11-07T04:44:00.041Z,2.28
2022-11-07T04:45:00.921Z,2.30
2022-11-07T04:46:01.795Z,2.25
2022-11-07T04:47:02.686Z,2.27
2022-11-07T04:48:03.648Z,2.27
2022-11-07T04:49:04.465Z,2.27
2022-11-07T04:50:05.335Z,2.28
2022-11-07T04:51:06.219Z,2.30
2022-11-07T04:52:07.115Z,2.34
2022-11-07T04:53:08.003Z,2.34
2022-11-07T04:54:08.874Z,2.35
2022-11-07T04:55:09.756Z,2.35
2022-11-07T04:56:10.654Z,2.34
2022-11-07T04:57:11.535Z,2.30
2022-11-07T04:58:12.406Z,2.28
2022-11-07T04:59:13.291Z,2.27
2022-11-07T05:00:14.176Z,2.27
2022-11-07T05:01:15.058Z,2.28
2022-11-07T05:02:16.070Z,2.27
2022-11-07T05:03:17.057Z,2.30
2022-11-07T05:04:17.147Z,2.30
2022-11-07T05:05:18.029Z,2.31
2022-11-07T05:06:18.900Z,2.34
2022-11-07T05:07:19.792Z,2.34
2022-11-07T05:08:20.685Z,2.34
2022-11-07T05:09:21.549Z,2.35
2022-11-07T05:10:22.432Z,2.34
2022-11-07T05:11:23.313Z,2.34
2022-11-07T05:12:24.208Z,2.30
2022-11-07T05:13:25.095Z,2.31
2022-11-07T05:14:25.998Z,2.30
2022-11-07T05:15:26.856Z,2.30
2022-11-07T05:16:27.742Z,2.28
2022-11-07T05:17:28.646Z,2.23
2022-11-07T05:18:29.541Z,2.17
2022-11-07T05:19:30.405Z,2.16
2022-11-07T05:20:31.303Z,2.14
2022-11-07T05:21:32.174Z,2.10
2022-11-07T05:22:33.057Z,2.07
2022-11-07T05:23:33.941Z,2.06
2022-11-07T05:24:34.811Z,2.07
2022-11-07T05:25:35.694Z,2.06
2022-11-07T05:26:36.586Z,2.06
2022-11-07T05:27:37.472Z,2.03
2022-11-07T05:28:39.831Z,2.05
2022-11-07T05:29:38.861Z,2.05
2022-11-07T05:30:39.748Z,2.05
2022-11-07T05:31:40.630Z,2.05
2022-11-07T05:32:41.541Z,2.05
2022-11-07T05:33:42.435Z,2.03
2022-11-07T05:34:43.291Z,2.03
2022-11-07T05:35:44.173Z,2.03
2022-11-07T05:36:45.060Z,2.02
2022-11-07T05:37:45.956Z,2.03
2022-11-07T05:38:46.855Z,2.02
2022-11-07T05:39:51.072Z,2.02
2022-11-07T05:40:49.495Z,1.99
2022-11-07T05:41:49.376Z,1.99
2022-11-07T05:42:50.274Z,1.99
2022-11-07T05:43:51.159Z,1.99
2022-11-07T05:44:52.057Z,1.98
2022-11-07T05:45:52.874Z,1.99
2022-11-07T05:46:53.752Z,2.00
2022-11-07T05:47:54.618Z,2.00
2022-11-07T05:49:00.673Z,1.99
2022-11-07T05:49:57.227Z,2.02
2022-11-07T05:50:57.073Z,2.00
2022-11-07T05:51:57.945Z,2.00
2022-11-07T05:52:58.922Z,1.99
2022-11-07T05:53:59.704Z,1.98
2022-11-07T05:55:00.544Z,1.93
2022-11-07T05:56:01.364Z,1.91
2022-11-07T05:57:02.209Z,1.90
2022-11-07T05:58:06.973Z,1.87
2022-11-07T05:59:03.943Z,1.90
2022-11-07T06:00:04.772Z,1.87
2022-11-07T06:01:05.593Z,1.88
2022-11-07T06:02:06.516Z,1.84
2022-11-07T06:03:07.431Z,1.86
2022-11-07T06:04:08.229Z,1.83
2022-11-07T06:05:09.031Z,1.83
2022-11-07T06:06:09.863Z,1.83
2022-11-07T06:07:10.680Z,1.83
2022-11-07T06:08:11.517Z,1.83
2022-11-07T06:09:12.349Z,1.81
2022-11-07T06:10:13.177Z,1.81
2022-11-07T06:11:14.014Z,1.80
2022-11-07T06:12:14.833Z,1.81
2022-11-07T06:13:16.003Z,1.79
2022-11-07T06:14:16.502Z,1.77
2022-11-07T06:15:17.341Z,1.79
2022-11-07T06:16:18.162Z,1.77
2022-11-07T06:17:18.990Z,1.76
2022-11-07T06:18:19.831Z,1.72
2022-11-07T06:19:20.671Z,1.72
2022-11-07T06:20:21.481Z,1.70
2022-11-07T06:21:22.323Z,1.69
2022-11-07T06:22:23.141Z,1.69
2022-11-07T06:23:23.980Z,1.66
2022-11-07T06:24:24.808Z,1.65
2022-11-07T06:25:25.648Z,1.66
2022-11-07T06:26:26.475Z,1.66
2022-11-07T06:27:27.316Z,1.63
2022-11-07T06:28:28.122Z,1.65
2022-11-07T06:29:28.952Z,1.63
2022-11-07T06:30:29.824Z,1.65
2022-11-07T06:31:30.620Z,1.65
2022-11-07T06:32:31.451Z,1.66
2022-11-07T06:33:32.290Z,1.68
2022-11-07T06:34:33.138Z,1.70
2022-11-07T06:35:33.984Z,1.68
2022-11-07T06:36:34.786Z,1.69
2022-11-07T06:37:35.615Z,1.68
2022-11-07T06:38:36.453Z,1.66
2022-11-07T06:39:37.280Z,1.66
2022-11-07T06:40:38.112Z,1.68
2022-11-07T06:41:38.992Z,1.66
2022-11-07T06:42:39.778Z,1.65
2022-11-07T06:43:40.616Z,1.69
2022-11-07T06:44:41.434Z,1.69
2022-11-07T06:45:42.263Z,1.70
2022-11-07T06:46:43.095Z,1.70
2022-11-07T06:47:43.978Z,1.73
2022-11-07T06:48:44.770Z,1.77
2022-11-07T06:49:45.615Z,1.76
2022-11-07T06:50:46.425Z,1.77
2022-11-07T06:51:48.122Z,1.80
2022-11-07T06:52:47.976Z,1.80
2022-11-07T06:53:48.868Z,1.80
2022-11-07T06:54:49.655Z,1.79
2022-11-07T06:55:50.483Z,1.73
2022-11-07T06:56:51.313Z,1.76
2022-11-07T06:57:52.146Z,1.73
2022-11-07T06:58:52.982Z,1.72
2022-11-07T06:59:53.835Z,1.70
2022-11-07T07:00:54.658Z,1.69
2022-11-07T07:01:55.537Z,1.70
2022-11-07T07:02:59.054Z,1.69
2022-11-07T07:03:57.041Z,1.69
2022-11-07T07:04:57.921Z,1.66
2022-11-07T07:05:58.725Z,1.66
2022-11-07T07:06:59.539Z,1.65
2022-11-07T07:08:00.366Z,1.66
2022-11-07T07:09:01.199Z,1.66
2022-11-07T07:10:02.027Z,1.66
2022-11-07T07:11:02.852Z,1.68
2022-11-07T07:12:03.678Z,1.66
2022-11-07T07:13:04.512Z,1.65
2022-11-07T07:14:10.246Z,1.65
2022-11-07T07:15:07.297Z,1.66
2022-11-07T07:16:06.621Z,1.65
2022-11-07T07:17:07.440Z,1.66
2022-11-07T07:18:08.370Z,1.65
2022-11-07T07:19:09.133Z,1.66
2022-11-07T07:20:10.079Z,1.66
2022-11-07T07:21:10.839Z,1.66
2022-11-07T07:22:11.665Z,1.63
2022-11-07T07:23:12.494Z,1.62
2022-11-07T07:24:13.327Z,1.63
2022-11-07T07:25:14.147Z,1.63
2022-11-07T07:26:14.984Z,1.60
2022-11-07T07:27:15.804Z,1.60
2022-11-07T07:28:16.651Z,1.62
2022-11-07T07:29:17.475Z,1.62
2022-11-07T07:30:18.306Z,1.62
2022-11-07T07:31:19.149Z,1.63
2022-11-07T07:32:19.964Z,1.63
2022-11-07T07:33:20.817Z,1.65
2022-11-07T07:34:21.644Z,1.70
2022-11-07T07:35:22.590Z,1.72
2022-11-07T07:36:23.423Z,1.73
2022-11-07T07:37:24.245Z,1.77
2022-11-07T07:38:25.085Z,1.81
2022-11-07T07:39:25.910Z,1.83
2022-11-07T07:40:26.734Z,1.86
2022-11-07T07:41:27.562Z,1.86
2022-11-07T07:42:28.386Z,1.87
2022-11-07T07:43:29.227Z,1.87
2022-11-07T07:44:30.050Z,1.87
2022-11-07T07:45:30.884Z,1.87
2022-11-07T07:46:31.725Z,1.87
2022-11-07T07:47:32.543Z,1.90
2022-11-07T07:48:33.382Z,1.90
2022-11-07T07:49:34.217Z,1.91
2022-11-07T07:50:35.156Z,1.91
2022-11-07T07:51:35.917Z,1.95
2022-11-07T07:52:36.737Z,1.95
2022-11-07T07:53:37.574Z,2.00
2022-11-07T07:54:38.397Z,2.07
2022-11-07T07:55:39.233Z,2.10
2022-11-07T07:56:40.055Z,2.16
2022-11-07T07:57:40.891Z,2.20
2022-11-07T07:58:41.730Z,2.24
2022-11-07T07:59:42.560Z,2.28
2022-11-07T08:00:43.457Z,2.31
2022-11-07T08:01:44.471Z,2.36
2022-11-07T08:02:44.806Z,2.41
2022-11-07T08:04:00.882Z,2.49
2022-11-07T08:04:47.348Z,2.54
2022-11-07T08:05:47.287Z,2.57
2022-11-07T08:06:48.045Z,2.64
2022-11-07T08:07:48.880Z,2.71
2022-11-07T08:08:49.710Z,2.77
2022-11-07T08:09:50.540Z,2.87
2022-11-07T08:10:51.375Z,2.95
2022-11-07T08:11:52.200Z,2.97
2022-11-07T08:12:53.032Z,3.08
2022-11-07T08:13:58.387Z,3.11
2022-11-07T08:14:55.588Z,3.20
2022-11-07T08:15:55.419Z,3.28
2022-11-07T08:16:56.249Z,3.36
2022-11-07T08:17:57.067Z,3.47
2022-11-07T08:18:57.909Z,3.61
2022-11-07T08:19:58.733Z,3.78
2022-11-07T08:20:59.682Z,3.96
2022-11-07T08:22:00.440Z,4.15
2022-11-07T08:23:01.265Z,4.32
2022-11-07T08:24:02.111Z,4.45
2022-11-07T08:25:02.935Z,4.65
2022-11-07T08:26:03.756Z,4.82
2022-11-07T08:27:04.587Z,4.99
2022-11-07T08:28:05.423Z,5.07
2022-11-07T08:29:06.247Z,5.15
2022-11-07T08:30:07.066Z,5.21
2022-11-07T08:31:07.897Z,5.30
2022-11-07T08:32:08.730Z,5.36
2022-11-07T08:33:09.641Z,5.40
2022-11-07T08:34:10.526Z,5.42
2022-11-07T08:35:11.288Z,5.46
2022-11-07T08:36:12.137Z,5.51
2022-11-07T08:37:12.940Z,5.53
2022-11-07T08:38:13.766Z,5.54
2022-11-07T08:39:14.625Z,5.56
2022-11-07T08:40:15.453Z,5.56
2022-11-07T08:41:21.773Z,5.56
2022-11-07T08:42:17.996Z,5.56
2022-11-07T08:43:18.156Z,5.57
2022-11-07T08:44:18.708Z,5.58
2022-11-07T08:45:19.527Z,5.61
2022-11-07T08:46:20.369Z,5.65
2022-11-07T08:47:21.187Z,5.67
2022-11-07T08:48:22.016Z,5.68
2022-11-07T08:49:22.938Z,5.76
2022-11-07T08:50:23.780Z,5.79
2022-11-07T08:51:24.588Z,5.81
2022-11-07T08:52:25.410Z,5.85
2022-11-07T08:53:26.231Z,5.90
2022-11-07T08:54:27.062Z,5.90
2022-11-07T08:55:27.904Z,5.93
2022-11-07T08:56:28.721Z,5.97
2022-11-07T08:57:29.551Z,5.94
2022-11-07T08:58:30.577Z,5.96
2022-11-07T08:59:31.366Z,5.97
2022-11-07T09:00:32.211Z,5.99
2022-11-07T09:01:33.215Z,6.00
2022-11-07T09:03:57.727Z,6.00
2022-11-07T09:04:36.150Z,5.99
2022-11-07T09:05:35.941Z,6.01
2022-11-07T09:06:36.780Z,6.03
2022-11-07T09:07:37.595Z,6.01
2022-11-07T09:08:38.421Z,6.04
2022-11-07T09:09:39.267Z,6.06
2022-11-07T09:10:40.095Z,6.08
2022-11-07T09:11:40.921Z,6.12
2022-11-07T09:12:41.757Z,6.15
2022-11-07T09:13:42.584Z,6.19
2022-11-07T09:14:43.426Z,6.22
2022-11-07T09:15:50.386Z,6.28
2022-11-07T09:16:45.969Z,6.33
2022-11-07T09:17:45.807Z,6.36
2022-11-07T09:18:46.636Z,6.43
2022-11-07T09:19:47.474Z,6.46
2022-11-07T09:20:48.303Z,6.54
2022-11-07T09:21:49.169Z,6.56
2022-11-07T09:22:49.968Z,6.59
2022-11-07T09:23:50.837Z,6.64
2022-11-07T09:24:51.668Z,6.69
2022-11-07T09:25:52.489Z,6.76
2022-11-07T09:26:53.326Z,6.79
2022-11-07T09:27:54.153Z,6.80
2022-11-07T09:29:00.031Z,6.88
2022-11-07T09:29:56.707Z,6.91
2022-11-07T09:30:56.534Z,6.94
2022-11-07T09:31:57.357Z,6.97
2022-11-07T09:32:58.197Z,7.02
2022-11-07T09:33:59.014Z,7.06
2022-11-07T09:35:04.704Z,7.13
2022-11-07T09:36:01.570Z,7.16
2022-11-07T09:37:01.430Z,7.21
2022-11-07T09:38:02.241Z,7.23
2022-11-07T09:39:03.079Z,7.24
2022-11-07T09:40:03.899Z,7.28
2022-11-07T09:41:04.732Z,7.30
2022-11-07T09:42:05.547Z,7.34
2022-11-07T09:43:06.376Z,7.39
2022-11-07T09:44:07.203Z,7.45
2022-11-07T09:45:08.047Z,7.43
2022-11-07T09:46:08.872Z,7.49
2022-11-07T09:47:09.769Z,7.52
2022-11-07T09:48:10.528Z,7.52
2022-11-07T09:49:11.356Z,7.57
2022-11-07T09:50:12.203Z,7.58
2022-11-07T09:51:13.022Z,7.60
2022-11-07T09:52:13.873Z,7.63
2022-11-07T09:53:15.014Z,7.68
2022-11-07T09:54:15.432Z,7.72
2022-11-07T09:55:16.267Z,7.75
2022-11-07T09:56:17.099Z,7.80
2022-11-07T09:57:17.923Z,7.83
2022-11-07T09:58:18.750Z,7.85
2022-11-07T09:59:19.578Z,7.86
2022-11-07T10:00:20.425Z,7.90
2022-11-07T10:01:21.320Z,7.90
2022-11-07T10:02:22.214Z,7.95
2022-11-07T10:03:22.997Z,7.95
2022-11-07T10:04:25.710Z,7.97
2022-11-07T10:05:24.334Z,8.00
2022-11-07T10:06:25.152Z,8.01
2022-11-07T10:07:26.000Z,8.01
2022-11-07T10:08:26.803Z,8.04
2022-11-07T10:09:27.635Z,8.07
2022-11-07T10:10:28.474Z,8.08
2022-11-07T10:11:29.308Z,8.08
2022-11-07T10:12:30.136Z,8.12
2022-11-07T10:13:30.959Z,8.18
2022-11-07T10:14:31.829Z,8.19
2022-11-07T10:15:32.667Z,8.23
2022-11-07T10:16:33.498Z,8.28
2022-11-07T10:17:34.328Z,8.30
2022-11-07T10:18:35.163Z,8.37
2022-11-07T10:19:35.996Z,8.40
2022-11-07T10:20:36.836Z,8.44
2022-11-07T10:21:38.907Z,8.48
2022-11-07T10:22:38.655Z,8.55
2022-11-07T10:23:39.465Z,8.56
2022-11-07T10:24:40.294Z,8.61
2022-11-07T10:25:41.197Z,8.65
2022-11-07T10:26:42.007Z,8.71
2022-11-07T10:27:42.840Z,8.73
2022-11-07T10:28:43.654Z,8.79
2022-11-07T10:29:45.097Z,8.81
2022-11-07T10:30:45.476Z,8.84
2022-11-07T10:31:46.306Z,8.87
2022-11-07T10:32:47.133Z,8.87
2022-11-07T10:33:47.963Z,8.89
2022-11-07T10:34:53.998Z,8.89
2022-11-07T10:35:50.517Z,8.91
2022-11-07T10:36:50.334Z,8.92
2022-11-07T10:37:51.185Z,8.92
2022-11-07T10:38:51.993Z,8.95
2022-11-07T10:39:52.830Z,8.94
2022-11-07T10:40:53.666Z,8.96
2022-11-07T10:41:54.499Z,8.95
2022-11-07T10:42:55.321Z,8.95
2022-11-07T10:43:56.163Z,8.96
2022-11-07T10:44:56.981Z,8.98
2022-11-07T10:45:57.817Z,9.01
2022-11-07T10:46:58.802Z,9.02
2022-11-07T10:47:59.662Z,9.08
2022-11-07T10:49:00.450Z,9.10
2022-11-07T10:50:01.359Z,9.15
2022-11-07T10:51:02.185Z,9.17
2022-11-07T10:52:03.000Z,9.23
2022-11-07T10:53:03.862Z,9.29
2022-11-07T10:54:04.650Z,9.35
2022-11-07T10:55:05.470Z,9.39
2022-11-07T10:56:06.311Z,9.46
2022-11-07T10:57:07.137Z,9.51
2022-11-07T10:58:07.964Z,9.56
2022-11-07T10:59:08.793Z,9.61
2022-11-07T11:00:09.639Z,9.68
2022-11-07T11:01:10.511Z,9.74
2022-11-07T11:02:11.367Z,9.79
2022-11-07T11:03:12.162Z,9.86
2022-11-07T11:04:13.145Z,9.91
2022-11-07T11:05:13.969Z,9.96
2022-11-07T11:06:14.761Z,10.02
2022-11-07T11:07:15.609Z,10.05
2022-11-07T11:08:16.837Z,10.11
2022-11-07T11:09:17.362Z,10.14
2022-11-07T11:10:18.236Z,10.18
2022-11-07T11:11:19.039Z,10.22
2022-11-07T11:12:19.868Z,10.25
2022-11-07T11:13:20.746Z,10.27
2022-11-07T11:14:21.538Z,10.29
2022-11-07T11:15:22.372Z,10.33
2022-11-07T11:16:23.202Z,10.36
2022-11-07T11:17:24.084Z,10.38
2022-11-07T11:18:24.881Z,10.42
2022-11-07T11:19:25.704Z,10.45
2022-11-07T11:20:26.580Z,10.51
2022-11-07T11:21:27.391Z,10.53
2022-11-07T11:22:28.220Z,10.56
2022-11-07T11:23:29.071Z,10.59
2022-11-07T11:24:29.879Z,10.61
2022-11-07T11:25:30.731Z,10.64
2022-11-07T11:26:31.572Z,10.67
2022-11-07T11:27:32.399Z,10.67
2022-11-07T11:28:33.230Z,10.68
2022-11-07T11:29:39.155Z,10.70
2022-11-07T11:30:35.773Z,10.70
2022-11-07T11:31:35.591Z,10.71
2022-11-07T11:32:36.421Z,10.70
2022-11-07T11:33:37.241Z,10.73
2022-11-07T11:34:38.069Z,10.74
2022-11-07T11:35:41.951Z,10.76
2022-11-07T11:36:39.554Z,10.79
2022-11-07T11:37:40.387Z,10.82
2022-11-07T11:38:41.232Z,10.84
2022-11-07T11:39:42.034Z,10.86
2022-11-07T11:40:42.874Z,10.88
2022-11-07T11:41:43.693Z,10.89
2022-11-07T11:42:44.523Z,10.91
2022-11-07T11:43:45.350Z,10.94
2022-11-07T11:44:46.174Z,10.96
2022-11-07T11:45:47.014Z,10.99
2022-11-07T11:46:47.867Z,11.03
2022-11-07T11:47:48.676Z,11.06
2022-11-07T11:48:49.503Z,11.09
2022-11-07T11:49:50.323Z,11.11
2022-11-07T11:50:51.160Z,11.17
2022-11-07T11:51:51.979Z,11.21
2022-11-07T11:52:52.820Z,11.22
2022-11-07T11:53:53.660Z,11.27
2022-11-07T11:54:54.461Z,11.28
2022-11-07T11:55:55.293Z,11.32
2022-11-07T11:56:56.117Z,11.33
2022-11-07T11:57:56.940Z,11.33
2022-11-07T11:58:57.766Z,11.36
2022-11-07T11:59:58.589Z,11.40
2022-11-07T12:00:59.421Z,11.43
2022-11-07T12:02:00.316Z,11.46
2022-11-07T12:03:01.102Z,11.47
2022-11-07T12:04:03.994Z,11.47
2022-11-07T12:05:03.649Z,11.52
2022-11-07T12:06:03.484Z,11.51
2022-11-07T12:07:04.315Z,11.52
2022-11-07T12:08:05.150Z,11.55
2022-11-07T12:09:05.993Z,11.57
2022-11-07T12:10:06.803Z,11.55
2022-11-07T12:11:07.631Z,11.57
2022-11-07T12:12:08.461Z,11.58
2022-11-07T12:13:09.290Z,11.58
2022-11-07T12:14:10.111Z,11.60
2022-11-07T12:15:10.961Z,11.60
2022-11-07T12:16:11.805Z,11.61
2022-11-07T12:17:12.645Z,11.62
2022-11-07T12:18:13.466Z,11.64
2022-11-07T12:19:14.304Z,11.61
2022-11-07T12:20:15.135Z,11.62
2022-11-07T12:21:15.962Z,11.64
2022-11-07T12:22:16.796Z,11.62
2022-11-07T12:23:17.993Z,11.62
2022-11-07T12:24:18.494Z,11.62
2022-11-07T12:25:19.313Z,11.65
2022-11-07T12:26:20.144Z,11.64
2022-11-07T12:27:26.600Z,11.69
2022-11-07T12:28:22.690Z,11.70
2022-11-07T12:29:22.518Z,11.72
2022-11-07T12:30:23.348Z,11.73
2022-11-07T12:31:24.176Z,11.75
2022-11-07T12:32:24.999Z,11.78
2022-11-07T12:33:25.826Z,11.82
2022-11-07T12:34:26.645Z,11.82
2022-11-07T12:35:27.485Z,11.86
2022-11-07T12:36:28.305Z,11.88
2022-11-07T12:37:29.132Z,11.94
2022-11-07T12:38:29.951Z,11.91
2022-11-07T12:39:30.805Z,11.94
2022-11-07T12:40:31.619Z,11.94
2022-11-07T12:41:32.448Z,11.95
2022-11-07T12:42:33.268Z,11.98
2022-11-07T12:43:34.099Z,11.96
2022-11-07T12:44:34.915Z,11.96
2022-11-07T12:45:35.758Z,11.96
2022-11-07T12:46:36.588Z,11.98
2022-11-07T12:47:37.418Z,11.98
2022-11-07T12:48:38.244Z,11.98
2022-11-07T12:49:39.074Z,11.99
2022-11-07T12:50:39.914Z,11.99
2022-11-07T12:51:40.745Z,11.99
2022-11-07T12:52:41.561Z,12.01
2022-11-07T12:53:42.391Z,11.99
2022-11-07T12:54:43.242Z,11.99
2022-11-07T12:55:44.059Z,11.98
2022-11-07T12:56:44.878Z,11.98
2022-11-07T12:57:45.711Z,11.96
2022-11-07T12:58:46.528Z,11.96
2022-11-07T12:59:47.358Z,11.96
2022-11-07T13:00:48.187Z,11.95
2022-11-07T13:01:49.133Z,11.95
2022-11-07T13:02:50.035Z,11.94
2022-11-07T13:03:50.838Z,11.91
2022-11-07T13:04:51.669Z,11.94
2022-11-07T13:05:52.506Z,11.94
2022-11-07T13:06:53.339Z,11.95
2022-11-07T13:07:54.164Z,11.94
2022-11-07T13:08:54.991Z,11.99
2022-11-07T13:09:55.836Z,11.99
2022-11-07T13:10:56.652Z,12.01
2022-11-07T13:11:57.481Z,12.01
2022-11-07T13:12:58.301Z,11.99
2022-11-07T13:13:59.127Z,12.02
2022-11-07T13:14:59.956Z,12.02
2022-11-07T13:16:14.997Z,12.04
2022-11-07T13:17:02.512Z,12.02
2022-11-07T13:18:02.342Z,12.05
2022-11-07T13:19:03.170Z,12.07
2022-11-07T13:20:04.002Z,12.07
2022-11-07T13:21:04.842Z,12.12
2022-11-07T13:22:05.688Z,12.10
2022-11-07T13:23:06.496Z,12.10
2022-11-07T13:24:07.325Z,12.13
2022-11-07T13:25:11.815Z,12.12
2022-11-07T13:26:44.609Z,12.12